createdAt,value
2019-06-20T00:01:29.299Z,4.60
2019-06-20T00:04:00.614Z,4.80
2019-06-20T00:06:31.775Z,4.72
2019-06-20T00:09:03.153Z,4.75
2019-06-20T00:11:36.122Z,5.03
2019-06-20T00:14:07.276Z,4.47
2019-06-20T00:16:38.551Z,4.47
2019-06-20T00:19:09.820Z,4.75
2019-06-20T00:21:41.033Z,4.40
2019-06-20T00:24:12.279Z,4.33
2019-06-20T00:26:43.510Z,4.37
2019-06-20T00:29:14.770Z,4.30
2019-06-20T00:31:46.002Z,4.60
2019-06-20T00:34:17.339Z,4.10
2019-06-20T00:36:51.251Z,4.60
2019-06-20T00:39:21.442Z,4.33
2019-06-20T00:41:52.681Z,4.20
2019-06-20T00:44:23.950Z,4.60
2019-06-20T00:46:55.175Z,5.10
2019-06-20T00:49:26.387Z,5.05
2019-06-20T00:51:57.655Z,4.70
2019-06-20T00:54:28.878Z,4.62
2019-06-20T00:57:00.020Z,5.05
2019-06-20T00:59:31.178Z,4.83
2019-06-20T01:02:02.420Z,4.70
2019-06-20T01:04:33.681Z,4.67
2019-06-20T01:07:04.848Z,5.30
2019-06-20T01:09:35.990Z,4.80
2019-06-20T01:12:07.144Z,5.10
2019-06-20T01:14:38.327Z,4.65
2019-06-20T01:17:09.539Z,4.90
2019-06-20T01:19:40.795Z,4.77
2019-06-20T01:22:11.932Z,4.80
2019-06-20T01:24:43.116Z,4.80
2019-06-20T01:27:14.353Z,4.90
2019-06-20T01:29:45.549Z,4.80
2019-06-20T01:32:16.738Z,4.67
2019-06-20T01:34:48.069Z,5.05
2019-06-20T01:37:19.270Z,5.53
2019-06-20T01:39:50.443Z,5.80
2019-06-20T01:42:21.838Z,5.58
2019-06-20T01:44:53.034Z,5.35
2019-06-20T01:47:24.224Z,4.80
2019-06-20T01:49:55.423Z,5.22
2019-06-20T01:52:26.585Z,4.95
2019-06-20T01:54:57.751Z,5.33
2019-06-20T01:57:28.943Z,4.83
2019-06-20T02:00:00.101Z,4.47
2019-06-20T02:02:31.389Z,4.00
2019-06-20T02:05:02.561Z,4.53
2019-06-20T02:07:33.910Z,4.50
2019-06-20T02:10:06.512Z,4.10
2019-06-20T02:12:37.723Z,4.20
2019-06-20T02:15:08.876Z,4.70
2019-06-20T02:17:40.150Z,5.45
2019-06-20T02:20:22.850Z,4.50
2019-06-20T02:22:54.058Z,4.45
2019-06-20T02:25:25.273Z,3.98
2019-06-20T02:27:56.492Z,4.03
2019-06-20T02:30:27.760Z,3.98
2019-06-20T02:32:58.882Z,4.25
2019-06-20T02:35:30.075Z,4.60
2019-06-20T02:38:01.250Z,4.45
2019-06-20T02:40:32.427Z,5.12
2019-06-20T02:43:03.644Z,5.22
2019-06-20T02:45:38.378Z,6.00
2019-06-20T02:48:09.691Z,6.35
2019-06-20T02:50:40.991Z,4.60
2019-06-20T02:53:12.357Z,4.83
2019-06-20T02:55:43.503Z,4.95
2019-06-20T02:58:14.797Z,5.12
2019-06-20T03:00:56.982Z,4.95
2019-06-20T03:03:29.446Z,5.10
2019-06-20T03:06:00.579Z,5.03
2019-06-20T03:08:31.858Z,5.92
2019-06-20T03:11:03.046Z,5.40
2019-06-20T03:13:34.318Z,5.75
2019-06-20T03:16:07.127Z,6.00
2019-06-20T03:18:38.303Z,6.40
2019-06-20T03:21:09.554Z,5.50
2019-06-20T03:23:41.819Z,5.90
2019-06-20T03:26:13.153Z,6.33
2019-06-20T03:28:44.344Z,7.35
2019-06-20T03:31:15.508Z,5.67
2019-06-20T03:33:46.757Z,5.30
2019-06-20T03:36:17.906Z,6.35
2019-06-20T03:38:49.339Z,5.22
2019-06-20T03:41:20.499Z,6.12
2019-06-20T03:43:51.818Z,5.30
2019-06-20T03:46:23.090Z,6.00
2019-06-20T03:48:54.336Z,5.55
2019-06-20T03:51:25.593Z,5.35
2019-06-20T03:53:56.708Z,5.70
2019-06-20T03:56:27.978Z,5.78
2019-06-20T03:58:59.152Z,5.40
2019-06-20T04:01:30.605Z,5.30
2019-06-20T04:04:02.961Z,5.35
2019-06-20T04:06:34.141Z,5.10
2019-06-20T04:09:06.373Z,5.97
2019-06-20T04:11:37.739Z,5.58
2019-06-20T04:14:08.969Z,5.97
2019-06-20T04:16:40.133Z,5.58
2019-06-20T04:19:11.350Z,6.62
2019-06-20T04:21:42.631Z,5.83
2019-06-20T04:24:13.794Z,6.22
2019-06-20T04:26:44.991Z,6.72
2019-06-20T04:29:17.270Z,7.65
2019-06-20T04:31:48.504Z,8.20
2019-06-20T04:34:19.675Z,7.85
2019-06-20T04:36:50.902Z,7.08
2019-06-20T04:39:22.052Z,7.17
2019-06-20T04:41:53.236Z,7.50
2019-06-20T04:44:24.448Z,7.87
2019-06-20T04:47:01.390Z,8.55
2019-06-20T04:49:32.617Z,8.30
2019-06-20T04:52:03.842Z,8.13
2019-06-20T04:54:35.176Z,8.18
2019-06-20T04:57:06.606Z,6.47
2019-06-20T04:59:37.799Z,7.58
2019-06-20T05:02:09.039Z,7.70
2019-06-20T05:04:40.314Z,7.28
2019-06-20T05:07:18.611Z,6.70
2019-06-20T05:09:49.829Z,7.08
2019-06-20T05:12:21.137Z,6.85
2019-06-20T05:14:52.398Z,6.50
2019-06-20T05:17:23.588Z,6.15
2019-06-20T05:19:54.809Z,6.90
2019-06-20T05:22:26.976Z,6.80
2019-06-20T05:24:58.331Z,5.45
2019-06-20T05:27:29.538Z,5.00
2019-06-20T05:30:00.716Z,5.33
2019-06-20T05:32:31.942Z,5.10
2019-06-20T05:35:03.357Z,5.17
2019-06-20T05:37:34.553Z,4.95
2019-06-20T05:40:07.238Z,5.10
2019-06-20T05:42:38.459Z,5.03
2019-06-20T05:45:09.946Z,5.42
2019-06-20T05:47:42.244Z,5.28
2019-06-20T05:50:13.533Z,4.97
2019-06-20T05:52:44.682Z,5.40
2019-06-20T05:55:17.081Z,6.60
2019-06-20T05:57:48.291Z,6.30
2019-06-20T06:00:19.719Z,5.78
2019-06-20T06:02:52.625Z,7.42
2019-06-20T06:05:23.743Z,6.53
2019-06-20T06:07:54.961Z,6.22
2019-06-20T06:10:26.134Z,7.37
2019-06-20T06:12:57.323Z,7.03
2019-06-20T06:15:28.534Z,7.30
2019-06-20T06:17:59.765Z,7.17
2019-06-20T06:20:30.949Z,7.47
2019-06-20T06:23:02.349Z,7.42
2019-06-20T06:25:33.527Z,7.90
2019-06-20T06:28:04.687Z,7.75
2019-06-20T06:30:35.948Z,7.15
2019-06-20T06:33:07.086Z,7.20
2019-06-20T06:35:38.281Z,7.25
2019-06-20T06:38:09.471Z,6.90
2019-06-20T06:40:40.708Z,7.12
2019-06-20T06:43:11.919Z,6.85
2019-06-20T06:45:43.190Z,7.15
2019-06-20T06:48:14.357Z,7.47
2019-06-20T06:50:45.604Z,7.50
2019-06-20T06:53:16.870Z,6.65
2019-06-20T06:55:48.077Z,7.30
2019-06-20T06:58:19.260Z,7.58
2019-06-20T07:00:50.505Z,7.12
2019-06-20T07:03:21.671Z,7.15
2019-06-20T07:05:52.898Z,7.03
2019-06-20T07:08:24.061Z,7.00
2019-06-20T07:10:56.350Z,6.78
2019-06-20T07:13:27.587Z,7.58
2019-06-20T07:15:59.876Z,7.20
2019-06-20T07:18:31.038Z,7.90
2019-06-20T07:21:02.284Z,8.40
2019-06-20T07:23:33.453Z,7.67
2019-06-20T07:26:04.659Z,7.33
2019-06-20T07:28:35.851Z,7.75
2019-06-20T07:31:07.044Z,7.80
2019-06-20T07:33:38.227Z,6.62
2019-06-20T07:36:09.402Z,7.03
2019-06-20T07:38:40.602Z,7.28
2019-06-20T07:41:11.786Z,6.50
2019-06-20T07:43:42.989Z,6.60
2019-06-20T07:46:14.159Z,6.22
2019-06-20T07:48:45.325Z,7.08
2019-06-20T07:51:16.521Z,6.12
2019-06-20T07:53:47.791Z,5.78
2019-06-20T07:56:18.977Z,6.12
2019-06-20T07:58:50.187Z,6.10
2019-06-20T08:01:21.392Z,6.15
2019-06-20T08:03:54.285Z,6.30
2019-06-20T08:06:25.522Z,6.00
2019-06-20T08:08:56.705Z,6.05
2019-06-20T08:11:27.902Z,5.00
2019-06-20T08:13:59.220Z,5.33
2019-06-20T08:16:31.503Z,5.60
2019-06-20T08:19:02.696Z,5.37
2019-06-20T08:21:33.973Z,5.28
2019-06-20T08:24:05.208Z,5.03
2019-06-20T08:26:36.500Z,5.00
2019-06-20T08:29:20.378Z,4.87
2019-06-20T08:31:40.562Z,4.95
2019-06-20T08:34:11.789Z,5.08
2019-06-20T08:36:42.935Z,4.67
2019-06-20T08:39:14.198Z,4.35
2019-06-20T08:41:45.397Z,4.45
2019-06-20T08:44:16.627Z,4.75
2019-06-20T08:46:47.891Z,4.22
2019-06-20T08:49:20.069Z,4.42
2019-06-20T08:51:51.240Z,4.28
2019-06-20T08:54:22.538Z,4.15
2019-06-20T08:56:54.549Z,3.95
2019-06-20T08:59:26.741Z,4.35
2019-06-20T09:01:59.997Z,3.98
2019-06-20T09:04:30.850Z,4.45
2019-06-20T09:09:33.516Z,5.00
2019-06-20T09:12:05.113Z,4.20
2019-06-20T09:14:36.528Z,4.85
2019-06-20T09:17:07.758Z,5.15
2019-06-20T09:19:38.917Z,4.78
2019-06-20T09:22:10.151Z,5.00
2019-06-20T09:24:41.349Z,5.15
2019-06-20T09:27:12.553Z,5.15
2019-06-20T09:29:43.773Z,4.72
2019-06-20T09:32:15.257Z,5.28
2019-06-20T09:34:46.571Z,4.67
2019-06-20T09:37:17.751Z,4.85
2019-06-20T09:39:48.941Z,5.55
2019-06-20T09:42:20.167Z,5.12
2019-06-20T09:44:52.640Z,4.83
2019-06-20T09:47:23.784Z,4.22
2019-06-20T09:49:56.021Z,4.22
2019-06-20T09:52:27.825Z,4.50
2019-06-20T09:54:58.948Z,4.67
2019-06-20T09:57:30.122Z,4.50
2019-06-20T10:00:09.654Z,4.62
2019-06-20T10:02:35.326Z,5.15
2019-06-20T10:05:07.188Z,4.67
2019-06-20T10:07:38.336Z,4.47
2019-06-20T10:10:09.926Z,3.83
2019-06-20T10:12:41.082Z,4.12
2019-06-20T10:15:23.558Z,3.67
2019-06-20T10:17:54.738Z,3.90
2019-06-20T10:20:26.126Z,3.80
2019-06-20T10:22:57.551Z,4.30
2019-06-20T10:25:29.982Z,4.45
2019-06-20T10:28:02.262Z,4.12
2019-06-20T10:30:33.477Z,3.95
2019-06-20T10:33:04.684Z,3.98
2019-06-20T10:35:35.869Z,3.92
2019-06-20T10:38:07.106Z,3.75
2019-06-20T10:40:38.343Z,4.22
2019-06-20T10:43:09.701Z,3.90
2019-06-20T10:45:40.958Z,3.92
2019-06-20T10:48:12.122Z,3.67
2019-06-20T10:50:44.042Z,3.77
2019-06-20T10:53:15.559Z,3.30
2019-06-20T10:55:47.005Z,3.50
2019-06-20T10:58:18.145Z,3.83
2019-06-20T11:00:50.410Z,3.75
2019-06-20T11:03:21.632Z,3.70
2019-06-20T11:05:52.847Z,4.15
2019-06-20T11:08:24.041Z,3.37
2019-06-20T11:10:55.219Z,3.20
2019-06-20T11:13:26.402Z,3.52
2019-06-20T11:15:57.557Z,4.00
2019-06-20T11:18:28.822Z,3.15
2019-06-20T11:20:59.938Z,3.70
2019-06-20T11:23:31.145Z,4.28
2019-06-20T11:26:02.440Z,3.42
2019-06-20T11:28:34.627Z,3.30
2019-06-20T11:31:05.838Z,4.17
2019-06-20T11:33:38.649Z,3.50
2019-06-20T11:36:11.017Z,3.55
2019-06-20T11:38:42.604Z,3.60
2019-06-20T11:41:13.879Z,3.30
2019-06-20T11:43:46.850Z,3.27
2019-06-20T11:46:18.172Z,3.25
2019-06-20T11:48:49.769Z,3.50
2019-06-20T11:51:20.967Z,3.70
2019-06-20T11:53:52.255Z,4.00
2019-06-20T11:56:23.726Z,4.22
2019-06-20T11:58:54.978Z,4.12
2019-06-20T12:01:32.845Z,4.30
2019-06-20T12:03:59.482Z,4.30
2019-06-20T12:06:31.328Z,4.05
2019-06-20T12:09:03.931Z,4.22
2019-06-20T12:11:35.678Z,5.45
2019-06-20T12:14:06.971Z,4.08
2019-06-20T12:16:40.537Z,4.35
2019-06-20T12:19:11.039Z,4.90
2019-06-20T12:21:44.557Z,4.37
2019-06-20T12:24:17.376Z,4.80
2019-06-20T12:26:49.069Z,4.33
2019-06-20T12:29:20.280Z,3.92
2019-06-20T12:31:52.799Z,3.72
2019-06-20T12:34:24.232Z,3.15
2019-06-20T12:36:56.672Z,3.37
2019-06-20T12:39:32.496Z,3.15
2019-06-20T12:42:03.799Z,3.50
2019-06-20T12:44:35.093Z,4.12
2019-06-20T12:47:06.329Z,4.65
2019-06-20T12:49:39.062Z,4.35
2019-06-20T12:52:10.783Z,3.80
2019-06-20T12:54:43.319Z,6.00
2019-06-20T12:57:14.557Z,4.83
2019-06-20T12:59:46.370Z,4.37
2019-06-20T13:02:17.810Z,4.85
2019-06-20T13:04:50.495Z,4.40
2019-06-20T13:07:22.189Z,5.60
2019-06-20T13:09:55.085Z,4.35
2019-06-20T13:12:26.542Z,4.47
2019-06-20T13:14:57.783Z,4.65
2019-06-20T13:17:28.986Z,4.80
2019-06-20T13:20:00.203Z,4.08
2019-06-20T13:22:31.435Z,4.10
2019-06-20T13:25:02.661Z,3.50
2019-06-20T13:27:33.865Z,3.30
2019-06-20T13:30:05.966Z,3.30
2019-06-20T13:32:40.242Z,3.60
2019-06-20T13:35:11.614Z,3.50
2019-06-20T13:37:43.536Z,3.40
2019-06-20T13:40:17.459Z,3.92
2019-06-20T13:42:50.114Z,3.52
2019-06-20T13:45:24.131Z,3.60
2019-06-20T13:47:55.561Z,3.50
2019-06-20T13:50:27.182Z,3.42
2019-06-20T13:52:58.356Z,3.90
2019-06-20T13:55:29.575Z,3.20
2019-06-20T13:58:00.764Z,3.30
2019-06-20T14:00:33.150Z,3.00
2019-06-20T14:03:04.492Z,3.35
2019-06-20T14:05:35.638Z,3.52
2019-06-20T14:08:06.904Z,3.67
2019-06-20T14:10:38.131Z,4.00
2019-06-20T14:13:18.741Z,4.28
2019-06-20T14:15:44.148Z,4.60
2019-06-20T14:18:15.608Z,4.22
2019-06-20T14:20:46.829Z,4.60
2019-06-20T14:23:18.069Z,4.72
2019-06-20T14:25:49.298Z,5.47
2019-06-20T14:28:20.525Z,5.08
2019-06-20T14:30:52.708Z,4.80
2019-06-20T14:33:23.968Z,5.03
2019-06-20T14:35:55.165Z,5.50
2019-06-20T14:38:26.437Z,5.62
2019-06-20T14:40:57.645Z,5.78
2019-06-20T14:43:28.854Z,5.08
2019-06-20T14:46:00.201Z,5.12
2019-06-20T14:48:31.437Z,5.00
2019-06-20T14:51:02.595Z,6.05
2019-06-20T14:53:33.904Z,6.33
2019-06-20T14:56:05.130Z,5.70
2019-06-20T14:58:36.299Z,5.45
2019-06-20T15:01:07.684Z,5.45
2019-06-20T15:03:38.912Z,5.72
2019-06-20T15:06:10.113Z,5.70
2019-06-20T15:08:41.318Z,5.87
2019-06-20T15:11:12.607Z,5.37
2019-06-20T15:13:44.423Z,6.03
2019-06-20T15:16:16.788Z,6.17
2019-06-20T15:18:50.162Z,5.92
2019-06-20T15:21:20.863Z,5.85
2019-06-20T15:23:52.558Z,5.80
2019-06-20T15:26:23.838Z,5.62
2019-06-20T15:28:55.569Z,5.85
2019-06-20T15:31:28.085Z,5.00
2019-06-20T15:33:59.315Z,5.97
2019-06-20T15:36:30.592Z,5.83
2019-06-20T15:39:01.772Z,5.97
2019-06-20T15:41:34.661Z,5.75
2019-06-20T15:44:05.926Z,5.65
2019-06-20T15:46:37.191Z,5.50
2019-06-20T15:49:16.213Z,5.75
2019-06-20T15:51:41.433Z,5.12
2019-06-20T15:54:12.678Z,5.58
2019-06-20T15:56:43.852Z,5.72
2019-06-20T15:59:15.036Z,5.62
2019-06-20T16:01:46.232Z,5.97
2019-06-20T16:04:17.408Z,5.53
2019-06-20T16:06:48.737Z,5.80
2019-06-20T16:09:19.939Z,5.53
2019-06-20T16:11:51.173Z,5.90
2019-06-20T16:14:22.335Z,6.12
2019-06-20T16:16:53.504Z,5.78
2019-06-20T16:19:24.741Z,6.05
2019-06-20T16:21:56.063Z,5.72
2019-06-20T16:24:27.223Z,4.92
2019-06-20T16:26:58.521Z,5.65
2019-06-20T16:29:29.749Z,5.15
2019-06-20T16:32:00.968Z,5.05
2019-06-20T16:34:32.266Z,5.22
2019-06-20T16:37:10.035Z,5.35
2019-06-20T16:39:36.477Z,5.47
2019-06-20T16:42:07.764Z,5.75
2019-06-20T16:44:39.011Z,5.65
2019-06-20T16:47:10.196Z,5.83
2019-06-20T16:49:41.541Z,5.65
2019-06-20T16:52:12.745Z,6.12
2019-06-20T16:54:44.908Z,5.70
2019-06-20T16:57:16.142Z,6.08
2019-06-20T16:59:47.354Z,6.85
2019-06-20T17:02:18.518Z,6.85
2019-06-20T17:04:49.717Z,6.40
2019-06-20T17:07:20.963Z,5.67
2019-06-20T17:09:52.159Z,5.87
2019-06-20T17:12:23.354Z,10.55
2019-06-20T17:14:54.568Z,8.50
2019-06-20T17:17:25.745Z,6.60
2019-06-20T17:19:56.971Z,7.87
2019-06-20T17:22:28.166Z,22.00
2019-06-20T17:24:59.349Z,10.68
2019-06-20T17:27:30.543Z,7.28
2019-06-20T17:30:01.995Z,8.20
2019-06-20T17:32:33.270Z,7.15
2019-06-20T17:35:05.135Z,7.22
2019-06-20T17:37:36.278Z,7.28
2019-06-20T17:40:07.600Z,7.00
2019-06-20T17:42:38.855Z,9.83
2019-06-20T17:45:10.308Z,8.43
2019-06-20T17:47:41.678Z,10.18
2019-06-20T17:50:13.437Z,7.00
2019-06-20T17:52:44.597Z,7.70
2019-06-20T17:55:15.809Z,11.43
2019-06-20T17:57:47.018Z,6.85
2019-06-20T18:00:18.688Z,25.35
2019-06-20T18:02:49.885Z,26.70
2019-06-20T18:05:21.158Z,13.85
2019-06-20T18:07:52.363Z,8.38
2019-06-20T18:10:23.674Z,7.97
2019-06-20T18:12:54.842Z,8.43
2019-06-20T18:15:26.150Z,7.92
2019-06-20T18:17:58.302Z,7.65
2019-06-20T18:20:29.448Z,8.60
2019-06-20T18:23:00.692Z,7.10
2019-06-20T18:25:31.981Z,8.10
2019-06-20T18:28:03.189Z,7.30
2019-06-20T18:30:40.714Z,7.70
2019-06-20T18:33:12.061Z,6.58
2019-06-20T18:35:44.910Z,7.80
2019-06-20T18:38:16.047Z,12.70
2019-06-20T18:40:47.645Z,9.00
2019-06-20T18:43:18.866Z,8.28
2019-06-20T18:45:50.100Z,7.55
2019-06-20T18:48:21.289Z,8.20
2019-06-20T18:50:52.579Z,8.20
2019-06-20T18:53:23.835Z,8.30
2019-06-20T18:55:55.054Z,8.53
2019-06-20T18:58:26.268Z,7.50
2019-06-20T19:00:57.536Z,7.87
2019-06-20T19:03:30.393Z,8.80
2019-06-20T19:06:01.642Z,8.05
2019-06-20T19:08:32.759Z,8.00
2019-06-20T19:11:03.962Z,8.10
2019-06-20T19:13:35.334Z,8.85
2019-06-20T19:16:06.579Z,8.53
2019-06-20T19:18:37.818Z,8.00
2019-06-20T19:21:09.017Z,8.93
2019-06-20T19:23:40.166Z,8.68
2019-06-20T19:26:11.359Z,8.73
2019-06-20T19:28:42.622Z,9.23
2019-06-20T19:31:14.843Z,8.83
2019-06-20T19:33:46.049Z,9.40
2019-06-20T19:36:17.361Z,10.60
2019-06-20T19:38:48.613Z,10.18
2019-06-20T19:41:19.833Z,10.55
2019-06-20T19:43:51.178Z,9.85
2019-06-20T19:46:22.346Z,10.23
2019-06-20T19:48:53.531Z,9.68
2019-06-20T19:51:24.765Z,9.58
2019-06-20T19:53:55.981Z,10.38
2019-06-20T19:56:27.441Z,9.90
2019-06-20T19:58:58.676Z,9.80
2019-06-20T20:01:29.887Z,9.58
2019-06-20T20:04:04.338Z,9.45
2019-06-20T20:06:37.202Z,9.48
2019-06-20T20:09:11.586Z,8.85
2019-06-20T20:11:43.818Z,9.50
2019-06-20T20:14:15.700Z,8.68
2019-06-20T20:16:47.671Z,9.05
2019-06-20T20:19:19.038Z,9.10
2019-06-20T20:21:50.402Z,8.43
2019-06-20T20:24:21.822Z,10.18
2019-06-20T20:26:53.112Z,9.55
2019-06-20T20:29:24.430Z,9.63
2019-06-20T20:31:55.686Z,9.05
2019-06-20T20:34:26.884Z,11.12
2019-06-20T20:36:58.072Z,7.12
2019-06-20T20:39:29.441Z,5.90
2019-06-20T20:42:00.640Z,4.70
2019-06-20T20:44:32.957Z,6.67
2019-06-20T20:47:04.147Z,5.00
2019-06-20T20:49:35.390Z,5.45
2019-06-20T20:52:06.736Z,5.85
2019-06-20T20:54:37.906Z,5.92
2019-06-20T20:57:09.313Z,6.25
2019-06-20T20:59:40.558Z,6.78
2019-06-20T21:02:11.768Z,6.70
2019-06-20T21:04:43.062Z,7.08
2019-06-20T21:07:14.401Z,6.67
2019-06-20T21:09:45.683Z,6.97
2019-06-20T21:12:16.888Z,7.17
2019-06-20T21:14:48.081Z,6.78
2019-06-20T21:17:19.257Z,6.58
2019-06-20T21:19:50.512Z,7.37
2019-06-20T21:22:21.744Z,7.90
2019-06-20T21:24:53.010Z,7.03
2019-06-20T21:27:24.283Z,7.55
2019-06-20T21:29:55.474Z,7.62
2019-06-20T21:32:26.677Z,7.03
2019-06-20T21:34:57.875Z,6.58
2019-06-20T21:37:30.088Z,7.30
2019-06-20T21:40:01.279Z,6.53
2019-06-20T21:42:32.653Z,5.78
2019-06-20T21:45:04.551Z,5.85
2019-06-20T21:47:35.786Z,6.28
2019-06-20T21:50:07.399Z,6.20
2019-06-20T21:52:39.697Z,6.28
2019-06-20T21:55:11.140Z,6.15
2019-06-20T21:57:42.344Z,5.17
2019-06-20T22:00:18.404Z,5.42
2019-06-20T22:02:51.349Z,5.30
2019-06-20T22:05:22.626Z,5.28
2019-06-20T22:07:53.893Z,4.75
2019-06-20T22:10:25.129Z,4.92
2019-06-20T22:12:57.143Z,3.60
2019-06-20T22:15:28.555Z,3.15
2019-06-20T22:17:59.764Z,3.58
2019-06-20T22:20:31.572Z,6.60
2019-06-20T22:23:02.778Z,5.95
2019-06-20T22:25:33.996Z,6.58
2019-06-20T22:28:05.346Z,8.45
2019-06-20T22:30:53.346Z,6.55
2019-06-20T22:33:24.545Z,6.92
2019-06-20T22:35:55.998Z,6.53
2019-06-20T22:38:27.551Z,6.67
2019-06-20T22:40:58.897Z,7.25
2019-06-20T22:43:30.167Z,6.90
2019-06-20T22:46:01.430Z,7.70
2019-06-20T22:48:32.618Z,7.20
2019-06-20T22:51:03.816Z,7.70
2019-06-20T22:53:35.019Z,7.55
2019-06-20T22:56:06.254Z,7.30
2019-06-20T22:58:37.476Z,7.65
2019-06-20T23:01:08.707Z,7.85
2019-06-20T23:03:39.927Z,8.00
2019-06-20T23:06:11.210Z,8.20
2019-06-20T23:08:42.537Z,8.48
2019-06-20T23:11:13.829Z,9.08
2019-06-20T23:13:45.376Z,9.33
2019-06-20T23:16:16.703Z,9.93
2019-06-20T23:18:47.983Z,11.03
2019-06-20T23:21:19.170Z,11.65
2019-06-20T23:23:50.475Z,10.58
2019-06-20T23:26:21.643Z,10.80
2019-06-20T23:29:15.438Z,11.60
2019-06-20T23:31:46.729Z,11.10
2019-06-20T23:34:17.957Z,10.50
2019-06-20T23:36:49.377Z,11.08
2019-06-20T23:39:20.617Z,9.23
2019-06-20T23:41:51.842Z,8.60
2019-06-20T23:44:23.061Z,8.48
2019-06-20T23:46:54.380Z,7.70
2019-06-20T23:49:25.612Z,8.08
2019-06-20T23:52:03.142Z,6.35
2019-06-20T23:54:34.318Z,6.28
2019-06-20T23:57:05.743Z,6.80
2019-06-20T23:59:37.053Z,6.70
